createdAt,value
2022-11-28T00:23:48.096Z,18.35
2022-11-28T00:26:19.217Z,19.73
2022-11-28T00:28:45.792Z,18.65
2022-11-28T00:31:16.749Z,19.70
2022-11-28T00:33:43.248Z,19.88
2022-11-28T00:36:10.823Z,20.92
2022-11-28T00:38:37.277Z,20.63
2022-11-28T00:41:09.732Z,21.27
2022-11-28T00:43:36.466Z,22.00
2022-11-28T00:46:04.068Z,21.52
2022-11-28T00:48:31.934Z,22.25
2022-11-28T00:51:06.812Z,21.40
2022-11-28T00:53:32.986Z,23.08
2022-11-28T00:55:59.120Z,22.63
2022-11-28T00:58:25.250Z,22.27
2022-11-28T01:00:51.526Z,22.33
2022-11-28T01:03:17.699Z,21.77
2022-11-28T01:05:43.894Z,22.10
2022-11-28T01:08:10.845Z,21.55
2022-11-28T01:10:42.273Z,23.10
2022-11-28T01:13:09.479Z,21.50
2022-11-28T01:15:35.877Z,22.05
2022-11-28T01:18:02.809Z,22.33
2022-11-28T01:20:29.185Z,23.35
2022-11-28T01:22:55.357Z,21.95
2022-11-28T01:25:21.502Z,21.92
2022-11-28T01:27:47.779Z,21.90
2022-11-28T01:30:14.131Z,23.42
2022-11-28T01:32:40.391Z,23.42
2022-11-28T01:35:06.815Z,22.23
2022-11-28T01:37:32.939Z,23.45
2022-11-28T01:39:59.155Z,23.65
2022-11-28T01:42:25.341Z,23.45
2022-11-28T01:44:54.269Z,24.15
2022-11-28T01:47:30.504Z,22.55
2022-11-28T01:49:56.836Z,24.58
2022-11-28T01:52:23.911Z,22.30
2022-11-28T01:54:54.962Z,23.45
2022-11-28T01:57:23.953Z,23.50
2022-11-28T02:00:06.873Z,23.05
2022-11-28T02:02:49.177Z,24.52
2022-11-28T02:05:16.971Z,23.60
2022-11-28T02:07:44.309Z,23.67
2022-11-28T02:10:13.837Z,23.90
2022-11-28T02:12:58.769Z,23.75
2022-11-28T02:15:54.955Z,24.10
2022-11-28T02:21:24.258Z,22.27
2022-11-28T02:24:13.282Z,23.45
2022-11-28T02:27:16.380Z,21.95
2022-11-28T02:29:57.226Z,23.88
2022-11-28T02:32:34.735Z,23.23
2022-11-28T02:35:36.563Z,23.40
2022-11-28T02:38:40.067Z,23.85
2022-11-28T02:41:09.644Z,22.65
2022-11-28T02:43:52.089Z,23.00
2022-11-28T02:46:22.036Z,23.23
2022-11-28T02:49:06.848Z,23.88
2022-11-28T02:51:42.518Z,22.08
2022-11-28T02:54:13.450Z,22.40
2022-11-28T02:56:39.615Z,21.60
2022-11-28T02:59:37.243Z,23.88
2022-11-28T03:02:13.948Z,23.10
2022-11-28T03:05:13.898Z,22.60
2022-11-28T03:08:05.087Z,24.95
2022-11-28T03:10:45.054Z,23.52
2022-11-28T03:13:17.478Z,23.83
2022-11-28T03:16:15.135Z,23.45
2022-11-28T03:19:05.227Z,22.58
2022-11-28T03:21:47.593Z,21.95
2022-11-28T03:24:22.985Z,23.08
2022-11-28T03:29:37.091Z,21.70
2022-11-28T03:32:11.732Z,22.58
2022-11-28T03:34:44.590Z,22.30
2022-11-28T03:37:23.490Z,21.98
2022-11-28T03:39:55.381Z,22.15
2022-11-28T03:42:24.893Z,21.67
2022-11-28T03:45:12.644Z,21.50
2022-11-28T03:47:43.508Z,22.38
2022-11-28T03:50:17.484Z,24.58
2022-11-28T03:52:51.005Z,22.27
2022-11-28T03:55:33.126Z,22.33
2022-11-28T03:58:07.519Z,22.90
2022-11-28T04:00:38.288Z,24.95
2022-11-28T04:03:24.247Z,23.92
2022-11-28T04:06:19.040Z,24.40
2022-11-28T04:09:18.401Z,22.92
2022-11-28T04:12:04.686Z,24.52
2022-11-28T04:14:39.872Z,25.05
2022-11-28T04:17:13.627Z,24.60
2022-11-28T04:19:55.055Z,24.27
2022-11-28T04:22:42.657Z,23.77
2022-11-28T04:25:13.601Z,24.52
2022-11-28T04:27:53.176Z,24.77
2022-11-28T04:30:19.476Z,22.05
2022-11-28T04:32:55.927Z,24.40
2022-11-28T04:35:31.056Z,24.40
2022-11-28T04:37:59.230Z,24.27
2022-11-28T04:40:27.574Z,25.55
2022-11-28T04:43:01.770Z,25.38
2022-11-28T04:45:36.892Z,26.45
2022-11-28T04:48:03.718Z,27.48
2022-11-28T04:50:44.007Z,27.23
2022-11-28T04:53:20.400Z,27.90
2022-11-28T04:55:52.735Z,25.95
2022-11-28T04:58:25.162Z,25.33
2022-11-28T05:00:55.005Z,26.65
2022-11-28T05:03:22.325Z,26.35
2022-11-28T05:05:51.192Z,27.98
2022-11-28T05:08:18.923Z,27.58
2022-11-28T05:10:45.462Z,27.55
2022-11-28T05:13:11.576Z,27.42
2022-11-28T05:15:37.772Z,27.08
2022-11-28T05:18:04.302Z,28.65
2022-11-28T05:20:30.565Z,25.73
2022-11-28T05:22:56.754Z,27.73
2022-11-28T05:25:23.262Z,27.55
2022-11-28T05:27:49.526Z,27.02
2022-11-28T05:30:15.866Z,26.80
2022-11-28T05:32:42.163Z,26.73
2022-11-28T05:35:08.593Z,26.15
2022-11-28T05:37:34.754Z,27.65
2022-11-28T05:40:00.892Z,24.95
2022-11-28T05:42:28.540Z,26.50
2022-11-28T05:44:54.661Z,27.00
2022-11-28T05:47:20.787Z,26.25
2022-11-28T05:49:47.587Z,26.33
2022-11-28T05:52:13.706Z,24.45
2022-11-28T05:54:39.824Z,24.35
2022-11-28T05:57:08.573Z,24.95
2022-11-28T05:59:34.849Z,24.13
2022-11-28T06:02:01.192Z,24.63
2022-11-28T06:04:27.407Z,23.80
2022-11-28T06:06:53.555Z,24.50
2022-11-28T06:09:23.335Z,22.40
2022-11-28T06:11:51.878Z,23.02
2022-11-28T06:14:18.028Z,23.02
2022-11-28T06:16:44.284Z,24.10
2022-11-28T06:19:12.337Z,24.05
2022-11-28T06:21:38.735Z,25.73
2022-11-28T06:24:05.005Z,22.50
2022-11-28T06:26:31.217Z,23.60
2022-11-28T06:28:57.352Z,23.90
2022-11-28T06:31:28.395Z,22.40
2022-11-28T06:33:54.744Z,23.70
2022-11-28T06:36:21.077Z,23.55
2022-11-28T06:38:47.259Z,22.13
2022-11-28T06:41:17.281Z,23.92
2022-11-28T06:43:43.480Z,23.52
2022-11-28T06:46:21.189Z,21.50
2022-11-28T06:48:48.738Z,22.52
2022-11-28T06:51:15.510Z,22.33
2022-11-28T06:53:42.079Z,22.13
2022-11-28T06:56:11.160Z,24.67
2022-11-28T06:58:37.408Z,23.95
2022-11-28T07:01:13.145Z,25.00
2022-11-28T07:03:39.784Z,22.83
2022-11-28T07:06:06.956Z,22.85
2022-11-28T07:08:33.840Z,23.00
2022-11-28T07:11:08.789Z,23.35
2022-11-28T07:13:34.938Z,21.88
2022-11-28T07:16:01.061Z,22.05
2022-11-28T07:18:27.162Z,21.95
2022-11-28T07:20:53.297Z,21.10
2022-11-28T07:23:19.409Z,22.33
2022-11-28T07:25:45.524Z,23.95
2022-11-28T07:28:11.735Z,23.23
2022-11-28T07:30:37.922Z,23.67
2022-11-28T07:33:04.063Z,22.92
2022-11-28T07:35:30.194Z,22.50
2022-11-28T07:37:56.338Z,23.38
2022-11-28T07:40:22.960Z,21.52
2022-11-28T07:42:49.172Z,22.17
2022-11-28T07:45:15.391Z,23.05
2022-11-28T07:47:41.518Z,22.40
2022-11-28T07:50:08.302Z,23.65
2022-11-28T07:52:34.437Z,22.67
2022-11-28T07:55:00.573Z,25.15
2022-11-28T07:57:26.723Z,23.17
2022-11-28T07:59:52.859Z,22.42
2022-11-28T08:02:19.078Z,22.10
2022-11-28T08:04:50.448Z,22.10
2022-11-28T08:07:19.831Z,22.35
2022-11-28T08:09:46.106Z,22.52
2022-11-28T08:12:12.253Z,21.73
2022-11-28T08:14:38.370Z,23.00
2022-11-28T08:17:04.555Z,23.70
2022-11-28T08:19:35.127Z,22.92
2022-11-28T08:22:01.578Z,23.50
2022-11-28T08:24:27.967Z,24.55
2022-11-28T08:26:54.129Z,22.88
2022-11-28T08:29:20.258Z,23.45
2022-11-28T08:31:46.464Z,23.30
2022-11-28T08:34:12.868Z,23.52
2022-11-28T08:36:39.490Z,23.33
2022-11-28T08:41:59.777Z,21.80
2022-11-28T08:44:27.126Z,23.17
2022-11-28T08:46:54.352Z,22.95
2022-11-28T08:49:20.772Z,22.00
2022-11-28T08:51:47.032Z,25.10
2022-11-28T08:54:13.168Z,22.15
2022-11-28T08:56:39.401Z,22.33
2022-11-28T08:59:07.164Z,21.80
2022-11-28T09:01:33.427Z,22.50
2022-11-28T09:03:59.604Z,22.88
2022-11-28T09:06:25.864Z,22.95
2022-11-28T09:08:52.684Z,21.65
2022-11-28T09:11:20.840Z,24.75
2022-11-28T09:13:48.511Z,21.40
2022-11-28T09:16:15.608Z,22.55
2022-11-28T09:18:42.204Z,22.40
2022-11-28T09:21:10.850Z,21.45
2022-11-28T09:23:41.630Z,23.80
2022-11-28T09:26:12.932Z,23.50
2022-11-28T09:28:40.568Z,21.88
2022-11-28T09:31:07.693Z,23.45
2022-11-28T09:33:34.227Z,20.33
2022-11-28T09:36:14.725Z,23.40
2022-11-28T09:38:41.582Z,21.90
2022-11-28T09:41:29.244Z,24.00
2022-11-28T09:44:01.798Z,21.88
2022-11-28T09:46:33.361Z,24.52
2022-11-28T09:49:03.474Z,23.42
2022-11-28T09:51:52.693Z,23.13
2022-11-28T09:54:44.496Z,23.05
2022-11-28T09:57:30.883Z,23.83
2022-11-28T09:59:57.001Z,22.23
2022-11-28T10:02:41.121Z,23.17
2022-11-28T10:05:24.401Z,24.30
2022-11-28T10:08:19.729Z,24.10
2022-11-28T10:11:04.908Z,24.35
2022-11-28T10:14:06.553Z,23.45
2022-11-28T10:16:55.036Z,21.17
2022-11-28T10:19:53.882Z,23.58
2022-11-28T10:22:28.774Z,22.60
2022-11-28T10:24:57.610Z,22.17
2022-11-28T10:27:34.403Z,22.40
2022-11-28T10:30:15.529Z,28.17
2022-11-28T10:32:47.090Z,22.55
2022-11-28T10:35:42.333Z,24.75
2022-11-28T10:38:12.174Z,23.15
2022-11-28T10:40:56.716Z,21.77
2022-11-28T10:43:38.305Z,21.42
2022-11-28T10:46:12.627Z,23.15
2022-11-28T10:48:55.132Z,21.45
2022-11-28T10:51:38.368Z,23.60
2022-11-28T10:54:16.871Z,23.58
2022-11-28T10:56:57.402Z,25.27
2022-11-28T10:59:38.684Z,25.45
2022-11-28T11:02:19.931Z,22.60
2022-11-28T11:04:46.218Z,20.85
2022-11-28T11:07:21.019Z,21.77
2022-11-28T11:09:50.089Z,22.35
2022-11-28T11:12:21.725Z,23.58
2022-11-28T11:14:47.928Z,24.15
2022-11-28T11:17:36.467Z,23.25
2022-11-28T11:20:18.613Z,23.58
2022-11-28T11:22:55.014Z,22.73
2022-11-28T11:25:21.146Z,21.98
2022-11-28T11:27:56.765Z,23.02
2022-11-28T11:30:43.882Z,21.90
2022-11-28T11:33:17.310Z,23.92
2022-11-28T11:35:47.350Z,25.05
2022-11-28T11:38:22.568Z,24.27
2022-11-28T11:40:52.086Z,25.35
2022-11-28T11:43:31.544Z,24.92
2022-11-28T11:46:14.790Z,24.08
2022-11-28T11:48:50.394Z,23.80
2022-11-28T11:51:25.948Z,24.73
2022-11-28T11:54:14.813Z,23.60
2022-11-28T11:56:44.150Z,24.15
2022-11-28T11:59:16.183Z,23.15
2022-11-28T12:01:45.490Z,23.35
2022-11-28T12:04:45.048Z,26.80
2022-11-28T12:07:24.992Z,23.88
2022-11-28T12:09:54.787Z,24.55
2022-11-28T12:12:29.187Z,23.90
2022-11-28T12:14:55.624Z,23.23
2022-11-28T12:17:50.075Z,25.30
2022-11-28T12:20:26.571Z,24.15
2022-11-28T12:23:29.256Z,24.17
2022-11-28T12:26:23.415Z,24.40
2022-11-28T12:29:21.869Z,24.48
2022-11-28T12:32:22.638Z,23.27
2022-11-28T12:35:16.167Z,23.67
2022-11-28T12:38:10.771Z,23.88
2022-11-28T12:40:59.268Z,22.87
2022-11-28T12:44:02.600Z,21.98
2022-11-28T12:46:34.869Z,23.33
2022-11-28T12:49:17.596Z,25.88
2022-11-28T12:52:08.750Z,25.35
2022-11-28T12:55:20.453Z,23.75
2022-11-28T12:58:06.728Z,24.50
2022-11-28T13:00:34.310Z,25.48
2022-11-28T13:03:21.448Z,22.83
2022-11-28T13:06:24.940Z,24.15
2022-11-28T13:09:14.483Z,23.30
2022-11-28T13:12:17.625Z,23.23
2022-11-28T13:14:54.460Z,23.35
2022-11-28T13:17:45.526Z,24.02
2022-11-28T13:20:29.226Z,23.85
2022-11-28T13:23:29.213Z,25.02
2022-11-28T13:26:17.116Z,23.17
2022-11-28T13:28:57.775Z,22.80
2022-11-28T13:31:40.772Z,24.08
2022-11-28T13:34:15.427Z,24.02
2022-11-28T13:39:46.899Z,23.25
2022-11-28T13:43:02.359Z,24.70
2022-11-28T13:45:34.979Z,23.23
2022-11-28T13:49:06.468Z,25.43
2022-11-28T13:51:35.211Z,23.23
2022-11-28T13:54:19.999Z,24.55
2022-11-28T13:57:06.388Z,24.23
2022-11-28T13:59:33.533Z,25.33
2022-11-28T14:02:02.703Z,22.38
2022-11-28T14:04:31.424Z,24.27
2022-11-28T14:07:03.868Z,25.95
2022-11-28T14:09:47.757Z,27.80
2022-11-28T14:12:24.909Z,24.05
2022-11-28T14:15:10.319Z,24.98
2022-11-28T14:18:54.333Z,25.98
2022-11-28T14:21:40.713Z,24.67
2022-11-28T14:24:53.565Z,26.30
2022-11-28T14:27:30.893Z,25.85
2022-11-28T14:29:58.873Z,24.15
2022-11-28T14:32:31.567Z,24.13
2022-11-28T14:34:59.348Z,25.48
2022-11-28T14:37:29.464Z,26.08
2022-11-28T14:39:57.583Z,25.08
2022-11-28T14:45:34.766Z,23.52
2022-11-28T14:48:18.180Z,26.50
2022-11-28T14:50:59.072Z,26.55
2022-11-28T14:53:34.798Z,26.85
2022-11-28T14:56:11.504Z,24.80
2022-11-28T14:58:38.385Z,24.42
2022-11-28T15:01:10.318Z,24.80
2022-11-28T15:03:59.153Z,24.65
2022-11-28T15:06:35.325Z,25.50
2022-11-28T15:09:19.023Z,25.55
2022-11-28T15:12:00.547Z,24.15
2022-11-28T15:14:29.660Z,25.35
2022-11-28T15:17:00.523Z,23.52
2022-11-28T15:19:33.689Z,23.08
2022-11-28T15:22:00.067Z,23.25
2022-11-28T15:24:33.169Z,24.85
2022-11-28T15:27:22.566Z,24.52
2022-11-28T15:30:15.435Z,28.65
2022-11-28T15:32:42.285Z,27.55
2022-11-28T15:35:15.393Z,26.30
2022-11-28T15:37:51.543Z,26.33
2022-11-28T15:40:31.370Z,25.75
2022-11-28T15:42:59.180Z,25.77
2022-11-28T15:45:28.379Z,27.13
2022-11-28T15:47:55.660Z,26.02
2022-11-28T15:50:25.404Z,26.60
2022-11-28T15:52:58.453Z,25.77
2022-11-28T15:55:28.828Z,26.35
2022-11-28T15:58:19.329Z,25.83
2022-11-28T16:00:52.214Z,26.83
2022-11-28T16:03:26.283Z,26.67
2022-11-28T16:05:54.553Z,27.08
2022-11-28T16:08:36.106Z,27.27
2022-11-28T16:11:04.775Z,25.73
2022-11-28T16:13:32.495Z,28.17
2022-11-28T16:16:01.669Z,28.17
2022-11-28T16:18:29.261Z,28.25
2022-11-28T16:20:58.155Z,26.42
2022-11-28T16:23:35.855Z,29.27
2022-11-28T16:26:04.371Z,28.33
2022-11-28T16:28:36.469Z,26.92
2022-11-28T16:31:09.781Z,27.95
2022-11-28T16:33:41.065Z,28.00
2022-11-28T16:36:33.913Z,29.58
2022-11-28T16:39:10.440Z,28.75
2022-11-28T16:41:38.703Z,28.13
2022-11-28T16:44:11.134Z,28.02
2022-11-28T16:46:58.073Z,27.67
2022-11-28T16:49:34.875Z,28.15
2022-11-28T16:52:20.902Z,30.70
2022-11-28T16:54:54.857Z,30.40
2022-11-28T16:57:21.505Z,31.05
2022-11-28T16:59:49.285Z,30.35
2022-11-28T17:02:19.656Z,30.23
2022-11-28T17:04:47.938Z,30.88
2022-11-28T17:07:16.968Z,30.38
2022-11-28T17:09:44.702Z,32.83
2022-11-28T17:12:24.514Z,34.08
2022-11-28T17:14:50.788Z,48.03
2022-11-28T17:17:18.704Z,33.50
2022-11-28T17:19:45.658Z,33.08
2022-11-28T17:22:16.237Z,33.30
2022-11-28T17:24:42.604Z,30.52
2022-11-28T17:27:12.066Z,31.90
2022-11-28T17:29:38.559Z,32.30
2022-11-28T17:32:05.544Z,33.63
2022-11-28T17:34:33.815Z,33.63
2022-11-28T17:37:01.267Z,32.28
2022-11-28T17:39:28.626Z,38.22
2022-11-28T17:41:56.890Z,31.10
2022-11-28T17:44:24.652Z,32.17
2022-11-28T17:46:52.334Z,31.70
2022-11-28T17:49:19.380Z,33.22
2022-11-28T17:51:46.127Z,31.45
2022-11-28T17:54:17.865Z,32.20
2022-11-28T17:56:45.599Z,33.25
2022-11-28T17:59:13.261Z,32.50
2022-11-28T18:01:39.611Z,32.22
2022-11-28T18:04:05.824Z,34.75
2022-11-28T18:06:32.065Z,32.67
2022-11-28T18:08:59.957Z,32.42
2022-11-28T18:11:27.303Z,32.35
2022-11-28T18:13:54.163Z,35.53
2022-11-28T18:16:23.209Z,33.05
2022-11-28T18:18:49.628Z,32.95
2022-11-28T18:21:16.678Z,30.52
2022-11-28T18:23:46.074Z,31.45
2022-11-28T18:26:14.677Z,35.22
2022-11-28T18:28:41.561Z,33.30
2022-11-28T18:31:11.795Z,31.27
2022-11-28T18:33:38.942Z,32.60
2022-11-28T18:36:13.391Z,32.92
2022-11-28T18:38:40.559Z,32.55
2022-11-28T18:41:09.475Z,31.95
2022-11-28T18:43:36.791Z,32.17
2022-11-28T18:46:26.077Z,32.55
2022-11-28T18:48:53.286Z,35.05
2022-11-28T18:51:26.800Z,30.77
2022-11-28T18:53:54.691Z,34.33
2022-11-28T18:56:23.405Z,33.42
2022-11-28T18:58:54.625Z,32.13
2022-11-28T19:01:22.601Z,34.58
2022-11-28T19:03:50.483Z,32.83
2022-11-28T19:06:17.499Z,32.90
2022-11-28T19:08:43.616Z,31.80
2022-11-28T19:11:14.400Z,33.05
2022-11-28T19:13:42.483Z,32.10
2022-11-28T19:16:13.709Z,31.30
2022-11-28T19:18:40.729Z,30.55
2022-11-28T19:21:10.339Z,32.35
2022-11-28T19:23:36.663Z,33.17
2022-11-28T19:26:11.144Z,32.60
2022-11-28T19:28:39.032Z,30.83
2022-11-28T19:31:15.047Z,31.92
2022-11-28T19:33:45.881Z,31.75
2022-11-28T19:36:15.830Z,31.83
2022-11-28T19:38:42.626Z,32.13
2022-11-28T19:41:10.806Z,30.77
2022-11-28T19:43:37.408Z,30.77
2022-11-28T19:46:04.519Z,32.20
2022-11-28T19:48:33.050Z,31.90
2022-11-28T19:50:59.446Z,30.80
2022-11-28T19:53:26.224Z,29.88
2022-11-28T19:55:54.065Z,31.58
2022-11-28T19:58:20.174Z,31.52
2022-11-28T20:00:46.945Z,31.38
2022-11-28T20:03:13.060Z,31.05
2022-11-28T20:05:41.248Z,32.97
2022-11-28T20:08:08.454Z,31.38
2022-11-28T20:10:36.473Z,31.25
2022-11-28T20:13:02.608Z,30.70
2022-11-28T20:15:28.909Z,30.73
2022-11-28T20:17:55.055Z,29.00
2022-11-28T20:20:22.197Z,30.52
2022-11-28T20:22:48.334Z,32.10
2022-11-28T20:25:20.520Z,29.95
2022-11-28T20:27:48.818Z,30.02
2022-11-28T20:30:15.739Z,29.27
2022-11-28T20:32:42.278Z,29.30
2022-11-28T20:35:09.591Z,28.73
2022-11-28T20:37:36.656Z,29.88
2022-11-28T20:40:02.812Z,28.77
2022-11-28T20:42:28.921Z,28.08
2022-11-28T20:44:55.065Z,31.15
2022-11-28T20:47:21.582Z,27.95
2022-11-28T20:49:47.952Z,29.73
2022-11-28T20:52:14.096Z,29.00
2022-11-28T20:54:40.273Z,30.17
2022-11-28T20:57:20.774Z,28.17
2022-11-28T20:59:47.745Z,27.92
2022-11-28T21:02:14.001Z,28.50
2022-11-28T21:04:40.186Z,29.23
2022-11-28T21:07:06.294Z,28.30
2022-11-28T21:09:32.434Z,28.55
2022-11-28T21:11:59.600Z,29.45
2022-11-28T21:14:27.614Z,28.05
2022-11-28T21:16:54.046Z,27.88
2022-11-28T21:19:20.207Z,28.60
2022-11-28T21:21:46.319Z,29.95
2022-11-28T21:24:14.342Z,28.88
2022-11-28T21:26:45.276Z,30.15
2022-11-28T21:29:14.133Z,28.98
2022-11-28T21:31:42.614Z,28.38
2022-11-28T21:34:14.516Z,27.85
2022-11-28T21:36:41.037Z,27.88
2022-11-28T21:39:07.156Z,27.38
2022-11-28T21:41:33.407Z,27.92
2022-11-28T21:44:00.165Z,27.58
2022-11-28T21:46:27.324Z,27.65
2022-11-28T21:48:53.808Z,26.45
2022-11-28T21:51:23.180Z,27.33
2022-11-28T21:53:49.742Z,27.88
2022-11-28T21:56:15.984Z,28.40
2022-11-28T21:58:42.387Z,28.55
2022-11-28T22:01:11.506Z,26.65
2022-11-28T22:03:38.374Z,26.73
2022-11-28T22:06:13.812Z,26.33
2022-11-28T22:08:39.928Z,26.88
2022-11-28T22:11:11.197Z,27.15
2022-11-28T22:13:39.140Z,28.20
2022-11-28T22:16:20.128Z,27.80
2022-11-28T22:18:48.371Z,26.98
2022-11-28T22:24:04.176Z,26.40
2022-11-28T22:26:31.227Z,26.15
2022-11-28T22:28:58.861Z,27.92
2022-11-28T22:31:25.318Z,26.67
2022-11-28T22:33:51.521Z,28.30
2022-11-28T22:36:20.575Z,27.10
2022-11-28T22:38:48.939Z,26.63
2022-11-28T22:41:27.974Z,27.45
2022-11-28T22:43:56.644Z,28.08
2022-11-28T22:46:23.273Z,27.00
2022-11-28T22:48:50.654Z,29.35
2022-11-28T22:51:23.505Z,27.80
2022-11-28T22:53:57.831Z,26.20
2022-11-28T22:56:26.732Z,28.27
2022-11-28T22:58:53.460Z,26.83
2022-11-28T23:01:24.095Z,26.80
2022-11-28T23:03:51.383Z,25.77
2022-11-28T23:06:20.421Z,26.20
2022-11-28T23:08:53.217Z,27.50
2022-11-28T23:11:22.135Z,28.90
2022-11-28T23:13:50.073Z,27.92
2022-11-28T23:16:26.855Z,27.50
2022-11-28T23:18:55.181Z,27.45
2022-11-28T23:21:23.112Z,27.50
2022-11-28T23:23:49.316Z,28.15
2022-11-28T23:26:22.007Z,29.63
2022-11-28T23:28:49.091Z,28.08
2022-11-28T23:31:25.031Z,27.48
2022-11-28T23:33:52.517Z,28.67
2022-11-28T23:36:27.093Z,29.00
2022-11-28T23:38:56.582Z,29.70
2022-11-28T23:41:23.092Z,29.05
2022-11-28T23:43:49.753Z,28.90
2022-11-28T23:46:17.766Z,29.17
2022-11-28T23:48:45.095Z,30.48
2022-11-28T23:51:15.117Z,29.75
2022-11-28T23:53:42.058Z,30.35
2022-11-28T23:56:14.133Z,29.95
2022-11-28T23:58:41.601Z,30.73
